KAST/AST METAR and TAF weather

Enter ICAO airport designator
Station Type Date Time Source
KAST METAR 2021/03/01 21:55 UTC NOAA

KAST 012155Z AUTO 25006KT 10SM CLR 12/06 A3008 RMK AO2 SLP187 T01170061


Station Type Date Time Source
KAST Decoded METAR 2021/03/01 21:55 UTC NOAA

PORT OF ASTORIA AIRPORT, OR, United States (KAST) 46-09N 123-53W 3M
Mar 01, 2021 - 04:55 PM EST / 2021.03.01 2155 UTC
Wind: from the WSW (250 degrees) at 7 MPH (6 KT):0
Visibility: 10 mile(s):0
Sky conditions: clear
Temperature: 53.1 F (11.7 C)
Dew Point: 43.0 F (6.1 C)
Relative Humidity: 68%
Pressure (altimeter): 30.08 in. Hg (1018 hPa)
ob: KAST 012155Z AUTO 25006KT 10SM CLR 12/06 A3008 RMK AO2 SLP187 T01170061
cycle: 22

Station Type Date Time Source
KAST TAF 2021/03/01 21:18 UTC NOAA

TAF
AMD KAST 012115Z 0121/0218 22006KT P6SM BKN250
FM020000 VRB04KT 6SM BR SCT007 OVC015
FM020400 25004KT 3SM -DZ BKN006 OVC015
FM021200 VRB03KT P6SM SCT008 BKN020
FM021500 12004KT P6SM SCT020 BKN100

Example: see airport list